Time;durP1;ratioP1;P1;durP2;ratioP2;P2;SDS_P1;SDS_P2;PMS_P1;PMS_P2;Temp;Humidity;BMP_temperature;BMP_pressure;BME280_temperature;BME280_humidity;BME280_pressure;Samples;Min_cycle;Max_cycle;Signal;HPM_P1;HPM_P2
2022/10/17 00:02:33;;;;;;;5.00;4.17;;;11.00;99.90;;;;;;8408099;28;20200;-74
2022/10/17 00:06:34;;;;;;;5.27;4.50;;;10.90;99.90;;;;;;8392411;28;20192;-73
2022/10/17 00:10:35;;;;;;;4.83;3.97;;;10.90;99.90;;;;;;8393922;28;20188;-75
2022/10/17 00:14:36;;;;;;;4.60;4.13;;;10.80;99.90;;;;;;8409069;28;20192;-73
2022/10/17 00:18:37;;;;;;;5.53;4.40;;;10.70;99.90;;;;;;8391266;28;20537;-72
2022/10/17 00:22:38;;;;;;;7.57;5.73;;;10.70;99.90;;;;;;8391963;28;20191;-74
2022/10/17 00:26:39;;;;;;;6.90;5.30;;;10.60;99.90;;;;;;8409081;28;20190;-72
2022/10/17 00:30:40;;;;;;;9.87;5.90;;;10.60;99.90;;;;;;8390339;28;20190;-70
2022/10/17 00:34:41;;;;;;;7.77;5.77;;;10.60;99.90;;;;;;8392035;28;20188;-71
2022/10/17 00:38:44;;;;;;;8.57;5.70;;;10.60;99.90;;;;;;8409723;28;20219;-72
2022/10/17 00:42:45;;;;;;;6.47;5.40;;;10.50;99.90;;;;;;8409661;28;20234;-71
2022/10/17 00:46:45;;;;;;;6.73;5.87;;;10.50;99.90;;;;;;8392639;28;20210;-71
2022/10/17 00:50:49;;;;;;;6.30;5.27;;;10.40;99.90;;;;;;8391797;28;20515;-71
2022/10/17 00:55:02;;;;;;;7.60;4.97;;;10.40;99.90;;;;;;8389162;28;20196;-72
2022/10/17 00:59:03;;;;;;;6.83;5.47;;;10.30;99.90;;;;;;8407978;28;20242;-71
2022/10/17 01:03:04;;;;;;;4.37;3.97;;;10.20;99.90;;;;;;8410298;28;20210;-70
2022/10/17 01:07:05;;;;;;;6.53;4.73;;;10.20;99.90;;;;;;8393154;28;20203;-72
2022/10/17 01:11:43;;;;;;;5.33;4.83;;;10.20;99.90;;;;;;8393677;28;20264;-70
2022/10/17 01:16:08;;;;;;;5.60;4.87;;;10.20;99.90;;;;;;8392601;28;20218;-71
2022/10/17 01:20:45;;;;;;;5.30;4.67;;;10.20;99.90;;;;;;8412737;28;20281;-69
2022/10/17 01:24:47;;;;;;;5.10;4.53;;;10.20;99.90;;;;;;8399931;28;20199;-73
2022/10/17 01:29:12;;;;;;;4.87;4.37;;;10.20;99.90;;;;;;8416851;28;20194;-70
2022/10/17 01:33:20;;;;;;;5.00;4.40;;;10.10;99.90;;;;;;8416632;28;20281;-69
2022/10/17 01:37:31;;;;;;;5.07;4.37;;;10.00;99.90;;;;;;8393177;28;20218;-74
2022/10/17 01:41:41;;;;;;;6.70;4.80;;;10.00;99.90;;;;;;8414393;28;20823;-70
2022/10/17 01:45:54;;;;;;;4.10;3.70;;;9.90;99.90;;;;;;8397383;28;20194;-72
2022/10/17 01:50:01;;;;;;;4.60;3.83;;;9.90;99.90;;;;;;8399370;28;20189;-70
2022/10/17 01:54:26;;;;;;;4.20;3.80;;;9.80;99.90;;;;;;8414794;28;20187;-72
2022/10/17 01:58:35;;;;;;;3.73;3.20;;;9.70;99.90;;;;;;8411637;28;20225;-69
2022/10/17 02:02:37;;;;;;;4.40;3.90;;;9.60;99.90;;;;;;8413600;28;20194;-72
2022/10/17 02:06:38;;;;;;;4.00;3.53;;;9.60;99.90;;;;;;8398037;28;20201;-72
2022/10/17 02:11:08;;;;;;;3.80;3.50;;;9.50;99.90;;;;;;8396824;28;20221;-70
2022/10/17 02:15:12;;;;;;;5.43;4.10;;;9.50;99.90;;;;;;8398062;28;20192;-71
2022/10/17 02:19:31;;;;;;;6.07;4.77;;;9.40;99.90;;;;;;8414213;28;20209;-71
2022/10/17 02:23:49;;;;;;;4.80;4.30;;;9.50;99.90;;;;;;8411512;28;20221;-71
2022/10/17 02:27:57;;;;;;;5.30;4.40;;;9.40;99.90;;;;;;8411169;28;20189;-73
2022/10/17 02:32:06;;;;;;;10.27;6.33;;;9.40;99.90;;;;;;8395440;28;20186;-71
2022/10/17 02:36:17;;;;;;;5.37;4.70;;;9.40;99.90;;;;;;8394388;28;20241;-71
2022/10/17 02:40:21;;;;;;;6.17;4.90;;;9.40;99.90;;;;;;8411891;28;20192;-71
2022/10/17 02:44:23;;;;;;;5.47;4.90;;;9.30;99.90;;;;;;8410782;28;20189;-70
2022/10/17 02:48:35;;;;;;;6.67;5.43;;;9.30;99.90;;;;;;8413146;28;20193;-71
2022/10/17 02:52:42;;;;;;;6.90;5.40;;;9.30;99.90;;;;;;8393064;28;20195;-72
2022/10/17 02:57:32;;;;;;;6.30;4.67;;;9.30;99.90;;;;;;8392643;28;20286;-70
2022/10/17 03:01:35;;;;;;;7.47;5.37;;;9.20;99.90;;;;;;8398034;28;20201;-72
2022/10/17 03:05:35;;;;;;;6.87;6.13;;;9.10;99.90;;;;;;8410910;28;20280;-71
2022/10/17 03:09:36;;;;;;;8.20;5.53;;;9.20;99.90;;;;;;8394288;28;20193;-72
2022/10/17 03:13:37;;;;;;;6.73;5.87;;;9.20;99.90;;;;;;8394035;28;20279;-73
2022/10/17 03:17:38;;;;;;;3.40;3.10;;;9.10;99.90;;;;;;8393239;28;20245;-71
2022/10/17 03:21:38;;;;;;;3.57;3.10;;;9.10;99.90;;;;;;8394087;28;20562;-72
2022/10/17 03:25:39;;;;;;;3.63;3.23;;;9.00;99.90;;;;;;8411715;28;20239;-70
2022/10/17 03:29:40;;;;;;;3.43;3.13;;;8.90;99.90;;;;;;8393930;28;20199;-72
2022/10/17 03:33:41;;;;;;;3.50;3.20;;;8.90;99.90;;;;;;8394799;28;20227;-71
2022/10/17 03:37:42;;;;;;;5.50;5.00;;;8.80;99.90;;;;;;8395561;28;20254;-70
2022/10/17 03:41:42;;;;;;;4.87;4.37;;;8.80;99.90;;;;;;8412285;28;20485;-70
2022/10/17 03:45:43;;;;;;;5.27;4.53;;;8.80;99.90;;;;;;8411581;28;20216;-69
2022/10/17 03:49:44;;;;;;;5.87;4.93;;;8.70;99.90;;;;;;8408998;28;20192;-69
2022/10/17 03:53:45;;;;;;;7.83;6.73;;;8.60;99.90;;;;;;8392991;28;20192;-69
2022/10/17 03:57:46;;;;;;;7.93;6.20;;;8.60;99.90;;;;;;8390472;28;20227;-73
2022/10/17 04:01:46;;;;;;;5.73;4.83;;;8.60;99.90;;;;;;8393244;28;20192;-71
2022/10/17 04:05:47;;;;;;;5.27;4.60;;;8.40;99.90;;;;;;8410588;28;20188;-70
2022/10/17 04:09:48;;;;;;;7.27;6.37;;;8.30;99.90;;;;;;8393621;28;20180;-71
2022/10/17 04:13:54;;;;;;;9.53;6.67;;;8.30;99.90;;;;;;8411140;28;20177;-70
2022/10/17 04:17:54;;;;;;;10.93;7.53;;;8.30;99.90;;;;;;8409150;28;20204;-71
2022/10/17 04:21:55;;;;;;;8.43;6.10;;;8.30;99.90;;;;;;8396158;28;20191;-71
2022/10/17 04:25:58;;;;;;;7.10;5.80;;;8.30;99.90;;;;;;8411153;28;20223;-70
2022/10/17 04:29:58;;;;;;;6.07;5.17;;;8.20;99.90;;;;;;8393565;28;20185;-70
2022/10/17 04:33:59;;;;;;;5.47;4.50;;;8.20;99.90;;;;;;8390580;28;20186;-71
2022/10/17 04:38:00;;;;;;;5.73;5.10;;;8.10;99.90;;;;;;8391655;28;20219;-70
2022/10/17 04:42:01;;;;;;;5.40;4.80;;;8.00;99.90;;;;;;8409306;28;20187;-70
2022/10/17 04:46:05;;;;;;;5.53;4.97;;;7.90;99.90;;;;;;8389992;28;20337;-72
2022/10/17 04:50:06;;;;;;;7.00;4.97;;;7.90;99.90;;;;;;8411095;28;20180;-72
2022/10/17 04:54:07;;;;;;;8.00;6.07;;;7.80;99.90;;;;;;8392075;28;20180;-70
2022/10/17 04:58:07;;;;;;;8.07;6.77;;;7.80;99.90;;;;;;8392185;28;20219;-72
2022/10/17 05:02:08;;;;;;;10.17;7.93;;;7.90;99.90;;;;;;8392634;28;20199;-71
2022/10/17 05:06:14;;;;;;;8.63;7.23;;;7.90;99.90;;;;;;8391852;28;20218;-71
2022/10/17 05:10:15;;;;;;;9.37;7.13;;;7.90;99.90;;;;;;8407359;28;20188;-70
2022/10/17 05:14:16;;;;;;;6.93;5.83;;;7.90;99.90;;;;;;8409195;28;20220;-72
2022/10/17 05:18:17;;;;;;;5.60;5.00;;;7.80;99.90;;;;;;8394390;28;20265;-70
2022/10/17 05:22:17;;;;;;;6.70;4.80;;;7.70;99.90;;;;;;8388548;28;20199;-71
2022/10/17 05:26:19;;;;;;;5.23;4.73;;;7.60;99.90;;;;;;8407477;28;20184;-71
2022/10/17 05:30:20;;;;;;;9.60;6.37;;;7.60;99.90;;;;;;8393984;28;20188;-71
2022/10/17 05:34:20;;;;;;;7.47;5.87;;;7.60;99.90;;;;;;8407682;28;20192;-71
2022/10/17 05:38:21;;;;;;;7.90;6.30;;;7.70;99.90;;;;;;8393501;28;20295;-71
2022/10/17 05:42:22;;;;;;;9.70;6.70;;;7.80;99.90;;;;;;8409209;28;20206;-69
2022/10/17 05:46:23;;;;;;;8.03;6.70;;;7.90;99.90;;;;;;8407843;28;20227;-72
2022/10/17 05:50:24;;;;;;;10.20;6.67;;;8.00;99.90;;;;;;8409040;28;20673;-71
2022/10/17 05:54:25;;;;;;;14.93;9.70;;;8.10;99.90;;;;;;8409713;28;20189;-70
2022/10/17 05:58:27;;;;;;;14.53;10.00;;;8.20;99.90;;;;;;8406958;28;20224;-70
2022/10/17 06:02:27;;;;;;;18.30;12.53;;;8.20;99.90;;;;;;8408277;28;20192;-71
2022/10/17 06:06:28;;;;;;;17.30;11.40;;;8.40;99.90;;;;;;8413025;28;20189;-71
2022/10/17 06:10:29;;;;;;;11.73;8.57;;;8.50;99.90;;;;;;8396396;28;20181;-70
2022/10/17 06:14:30;;;;;;;9.17;7.33;;;8.60;99.90;;;;;;8415116;28;20188;-70
2022/10/17 06:18:31;;;;;;;8.27;6.60;;;8.80;99.90;;;;;;8393268;28;20216;-71
2022/10/17 06:22:31;;;;;;;8.33;6.33;;;8.90;99.90;;;;;;8414920;28;20182;-72
2022/10/17 06:26:32;;;;;;;9.60;7.37;;;9.10;99.90;;;;;;8414462;28;20318;-70
2022/10/17 06:30:33;;;;;;;8.37;6.77;;;9.30;99.90;;;;;;8414982;28;20668;-70
2022/10/17 06:34:34;;;;;;;8.97;7.67;;;9.40;99.90;;;;;;8414114;28;20202;-70
2022/10/17 06:38:35;;;;;;;9.87;8.30;;;9.70;99.90;;;;;;8396811;28;20224;-72
2022/10/17 06:42:35;;;;;;;14.33;10.63;;;9.90;99.90;;;;;;8399875;28;20203;-72
2022/10/17 06:46:40;;;;;;;22.47;14.70;;;10.10;99.90;;;;;;8398129;28;20194;-71
2022/10/17 06:50:40;;;;;;;23.63;18.07;;;10.30;99.90;;;;;;8400696;28;20409;-71
2022/10/17 06:54:42;;;;;;;35.40;24.23;;;10.50;99.90;;;;;;8398949;28;20249;-71
2022/10/17 06:58:43;;;;;;;42.10;29.73;;;10.90;99.90;;;;;;8399132;28;20257;-70
2022/10/17 07:02:43;;;;;;;53.53;37.20;;;11.30;99.90;;;;;;8415561;28;20200;-70
2022/10/17 07:06:44;;;;;;;142.47;90.90;;;11.60;99.90;;;;;;8417181;28;20204;-72
2022/10/17 07:10:45;;;;;;;92.10;62.90;;;11.80;99.90;;;;;;8400398;28;20834;-73
2022/10/17 07:14:46;;;;;;;64.00;44.67;;;12.10;99.90;;;;;;8398112;28;20248;-71
2022/10/17 07:18:50;;;;;;;50.37;36.17;;;12.40;99.90;;;;;;8415994;28;20212;-71
2022/10/17 07:22:51;;;;;;;38.83;28.50;;;12.70;99.90;;;;;;8417315;28;20213;-70
2022/10/17 07:26:52;;;;;;;35.47;26.47;;;12.90;99.90;;;;;;8416506;28;20214;-72
2022/10/17 07:30:52;;;;;;;34.87;25.43;;;13.20;99.90;;;;;;8398005;28;20430;-71
2022/10/17 07:34:53;;;;;;;37.97;26.73;;;13.50;99.90;;;;;;8416966;28;20204;-70
2022/10/17 07:38:54;;;;;;;35.93;26.87;;;13.80;99.90;;;;;;8397521;28;20208;-70
2022/10/17 07:42:55;;;;;;;33.40;26.43;;;14.10;99.90;;;;;;8411606;28;20181;-71
2022/10/17 07:46:56;;;;;;;28.97;23.37;;;14.40;99.90;;;;;;8406680;28;20192;-71
2022/10/17 07:50:57;;;;;;;30.17;23.37;;;14.70;99.90;;;;;;8392764;28;20188;-70
2022/10/17 07:54:58;;;;;;;29.83;22.70;;;15.00;99.90;;;;;;8409038;28;20227;-71
2022/10/17 07:58:59;;;;;;;26.77;22.20;;;15.30;99.90;;;;;;8389976;28;20337;-71
2022/10/17 08:02:59;;;;;;;25.53;20.63;;;15.60;99.90;;;;;;8386100;28;20225;-71
2022/10/17 08:07:00;;;;;;;29.07;22.50;;;15.80;99.90;;;;;;8390694;28;20189;-71
2022/10/17 08:11:04;;;;;;;29.50;22.43;;;16.00;99.90;;;;;;8415793;28;20192;-71
2022/10/17 08:15:06;;;;;;;28.33;22.03;;;16.30;99.90;;;;;;8411638;28;20184;-69
2022/10/17 08:19:11;;;;;;;22.63;19.50;;;16.60;99.90;;;;;;8411156;28;20209;-71
2022/10/17 08:23:12;;;;;;;23.73;20.20;;;16.80;99.90;;;;;;8396400;28;20184;-71
2022/10/17 08:27:13;;;;;;;20.17;16.03;;;17.00;99.90;;;;;;8410244;28;20192;-70
2022/10/17 08:31:19;;;;;;;21.60;17.20;;;17.30;99.90;;;;;;8393907;28;20188;-70
2022/10/17 08:35:20;;;;;;;21.77;17.43;;;17.50;99.90;;;;;;8412955;28;20514;-71
2022/10/17 08:39:21;;;;;;;21.07;16.80;;;17.60;99.90;;;;;;8412885;28;20714;-70
2022/10/17 08:43:42;;;;;;;17.43;15.30;;;17.80;99.90;;;;;;8413550;28;20180;-71
2022/10/17 08:47:51;;;;;;;17.50;15.10;;;18.10;99.90;;;;;;8393869;28;20193;-71
2022/10/17 08:52:00;;;;;;;18.73;15.57;;;18.30;99.90;;;;;;8390940;28;20234;-70
2022/10/17 08:56:16;;;;;;;17.93;15.10;;;18.50;99.90;;;;;;8391708;28;20196;-71
2022/10/17 09:00:19;;;;;;;16.27;13.70;;;18.70;99.90;;;;;;8412694;28;20184;-71
2022/10/17 09:04:37;;;;;;;14.90;12.83;;;18.90;99.90;;;;;;8410436;28;20200;-70
2022/10/17 09:09:15;;;;;;;14.63;13.17;;;19.10;1.00;;;;;;8394019;28;20186;-71
2022/10/17 09:13:28;;;;;;;14.27;11.60;;;19.30;1.00;;;;;;8411239;28;20269;-71
2022/10/17 09:17:52;;;;;;;12.83;11.53;;;19.60;99.90;;;;;;8398232;28;20235;-70
2022/10/17 09:22:08;;;;;;;14.47;12.57;;;19.80;99.90;;;;;;8394009;28;20260;-69
2022/10/17 09:26:10;;;;;;;13.90;12.17;;;20.10;1.00;;;;;;8394708;28;20538;-70
2022/10/17 09:30:45;;;;;;;13.40;11.60;;;20.30;1.00;;;;;;8413181;28;20210;-68
2022/10/17 09:34:46;;;;;;;12.40;11.10;;;20.70;1.00;;;;;;8380781;28;20196;-69
2022/10/17 09:38:57;;;;;;;11.97;10.63;;;21.00;99.90;;;;;;8396519;28;20216;-69
2022/10/17 09:43:02;;;;;;;16.30;12.33;;;21.20;99.90;;;;;;8396974;28;20226;-68
2022/10/17 09:47:40;;;;;;;11.80;10.60;;;21.50;99.90;;;;;;8417926;28;20608;-69
2022/10/17 09:51:41;;;;;;;12.77;11.07;;;21.80;99.90;;;;;;8417926;28;20180;-70
2022/10/17 09:55:47;;;;;;;12.93;10.47;;;22.00;1.00;;;;;;8397857;28;20191;-69
2022/10/17 09:59:57;;;;;;;11.67;10.53;;;22.00;1.00;;;;;;8399305;28;20212;-71
2022/10/17 10:04:14;;;;;;;11.67;10.47;;;22.20;1.00;;;;;;8400745;28;20196;-69
2022/10/17 10:08:17;;;;;;;11.87;10.43;;;22.50;1.00;;;;;;8396071;28;20196;-68
2022/10/17 10:12:27;;;;;;;12.67;10.80;;;22.70;1.00;;;;;;8394637;28;20199;-70
2022/10/17 10:16:32;;;;;;;13.47;11.07;;;22.80;1.00;;;;;;8417839;28;20201;-68
2022/10/17 10:20:35;;;;;;;11.98;10.77;;;23.00;99.90;;;;;;8417212;28;20215;-70
2022/10/17 10:24:36;;;;;;;14.82;10.52;;;23.10;99.90;;;;;;8399852;28;20187;-68
2022/10/17 10:28:37;;;;;;;12.65;11.15;;;23.40;99.90;;;;;;8415270;28;20578;-69
2022/10/17 10:32:38;;;;;;;10.32;9.30;;;23.50;99.90;;;;;;8398407;28;20185;-69
2022/10/17 10:37:14;;;;;;;11.20;10.00;;;23.60;99.90;;;;;;8394171;28;20243;-68
2022/10/17 10:41:15;;;;;;;13.05;10.18;;;23.90;99.90;;;;;;8396064;28;20579;-72
2022/10/17 10:45:19;;;;;;;12.45;10.40;;;24.00;99.90;;;;;;8418176;28;20185;-68
2022/10/17 10:49:29;;;;;;;10.25;9.25;;;24.10;99.90;;;;;;8397842;28;20189;-68
2022/10/17 10:54:02;;;;;;;11.63;10.52;;;24.20;99.90;;;;;;8398838;28;20177;-68
2022/10/17 10:58:14;;;;;;;10.98;9.88;;;24.20;99.90;;;;;;8414287;28;20280;-69
2022/10/17 11:02:15;;;;;;;14.77;10.18;;;24.30;99.90;;;;;;8416007;28;20196;-69
2022/10/17 11:06:24;;;;;;;12.68;9.82;;;24.50;99.90;;;;;;8416764;28;20361;-69
2022/10/17 11:10:40;;;;;;;10.63;9.73;;;24.60;99.90;;;;;;8416808;28;20177;-67
2022/10/17 11:14:57;;;;;;;11.07;9.88;;;24.60;99.90;;;;;;8416154;28;20188;-69
2022/10/17 11:19:01;;;;;;;14.27;9.70;;;24.60;99.90;;;;;;8395948;28;20292;-68
2022/10/17 11:23:13;;;;;;;13.43;10.93;;;24.60;99.90;;;;;;8396868;28;20173;-69
2022/10/17 11:27:14;;;;;;;15.00;11.32;;;24.60;99.90;;;;;;8414632;28;20184;-68
2022/10/17 11:31:17;;;;;;;13.55;12.10;;;24.60;99.90;;;;;;8415247;28;20184;-68
2022/10/17 11:35:32;;;;;;;14.43;11.50;;;24.40;99.90;;;;;;8414869;28;20223;-68
2022/10/17 11:39:57;;;;;;;14.48;12.07;;;24.40;99.90;;;;;;8413099;28;20196;-68
2022/10/17 11:44:39;;;;;;;11.95;10.35;;;24.40;99.90;;;;;;8397790;28;20316;-68
2022/10/17 11:48:51;;;;;;;12.32;10.82;;;24.40;99.90;;;;;;8401470;28;20273;-69
2022/10/17 11:52:56;;;;;;;14.48;10.27;;;24.30;99.90;;;;;;8412233;28;20181;-68
2022/10/17 11:57:05;;;;;;;12.85;10.07;;;24.30;99.90;;;;;;8413265;28;20227;-68
2022/10/17 12:01:17;;;;;;;11.57;10.20;;;24.30;99.90;;;;;;8414496;28;20555;-68
2022/10/17 12:05:38;;;;;;;12.43;10.13;;;24.30;99.90;;;;;;8399397;28;20169;-68
2022/10/17 12:10:01;;;;;;;11.82;10.15;;;24.20;99.90;;;;;;8411568;28;20214;-68
2022/10/17 12:14:02;;;;;;;13.77;10.95;;;24.30;99.90;;;;;;8415109;28;20387;-67
2022/10/17 12:18:03;;;;;;;12.55;9.88;;;24.20;99.90;;;;;;8414801;28;20208;-67
2022/10/17 12:22:19;;;;;;;10.05;8.98;;;24.20;99.90;;;;;;8414527;28;20191;-67
2022/10/17 12:26:28;;;;;;;10.38;9.10;;;24.30;99.90;;;;;;8397395;28;20173;-66
2022/10/17 12:30:29;;;;;;;10.13;8.93;;;24.30;99.90;;;;;;8394428;28;20255;-68
2022/10/17 12:34:30;;;;;;;11.50;10.30;;;24.30;99.90;;;;;;8394198;28;20259;-67
2022/10/17 12:38:31;;;;;;;11.93;9.05;;;24.30;99.90;;;;;;8413608;28;20203;-67
2022/10/17 12:42:44;;;;;;;14.80;9.43;;;24.30;99.90;;;;;;8415829;28;20180;-67
2022/10/17 12:46:57;;;;;;;10.85;9.63;;;24.30;99.90;;;;;;8411617;28;20271;-68
2022/10/17 12:51:01;;;;;;;13.73;9.45;;;24.40;99.90;;;;;;8395556;28;20673;-67
2022/10/17 12:55:10;;;;;;;10.90;9.25;;;24.50;99.90;;;;;;8394079;28;20320;-69
2022/10/17 12:59:22;;;;;;;11.55;8.75;;;24.50;99.90;;;;;;8389254;28;20251;-69
2022/10/17 13:03:27;;;;;;;15.57;10.00;;;24.60;99.90;;;;;;8410584;28;20214;-68
2022/10/17 13:07:28;;;;;;;13.88;9.07;;;24.50;99.90;;;;;;8393246;28;20191;-68
2022/10/17 13:11:31;;;;;;;10.38;9.07;;;24.60;99.90;;;;;;8392398;28;20176;-66
2022/10/17 13:15:33;;;;;;;12.90;8.95;;;24.60;99.90;;;;;;8395561;28;20527;-66
2022/10/17 13:19:43;;;;;;;10.77;8.60;;;24.70;99.90;;;;;;8392986;28;20197;-68
2022/10/17 13:23:46;;;;;;;11.30;8.63;;;24.80;99.90;;;;;;8420277;28;20454;-68
2022/10/17 13:27:48;;;;;;;11.93;8.80;;;24.90;99.90;;;;;;8399126;28;20188;-67
2022/10/17 13:32:03;;;;;;;10.85;8.68;;;24.90;99.90;;;;;;8418278;28;20194;-67
2022/10/17 13:36:12;;;;;;;13.40;9.18;;;25.10;99.90;;;;;;8397257;28;20251;-66
2022/10/17 13:40:42;;;;;;;13.43;7.80;;;25.20;99.90;;;;;;8417914;28;20267;-67
2022/10/17 13:44:43;;;;;;;10.10;7.70;;;25.20;99.90;;;;;;8396002;28;20207;-67
2022/10/17 13:48:44;;;;;;;9.35;8.35;;;25.20;99.90;;;;;;8400334;28;20326;-69
2022/10/17 13:52:44;;;;;;;11.40;8.50;;;25.10;99.90;;;;;;8417586;28;20180;-69
2022/10/17 13:56:45;;;;;;;11.85;8.57;;;25.10;99.90;;;;;;8400237;28;20227;-68
2022/10/17 14:00:49;;;;;;;8.88;7.70;;;25.00;99.90;;;;;;8416567;28;20184;-68
2022/10/17 14:05:09;;;;;;;11.35;8.00;;;24.80;99.90;;;;;;8399623;28;20266;-67
2022/10/17 14:09:26;;;;;;;10.25;8.45;;;24.80;99.90;;;;;;8416308;28;20215;-67
2022/10/17 14:13:32;;;;;;;10.95;7.55;;;24.70;99.90;;;;;;8416656;28;20199;-68
2022/10/17 14:17:34;;;;;;;12.82;8.55;;;24.70;99.90;;;;;;8398452;28;20193;-69
2022/10/17 14:21:35;;;;;;;8.32;7.55;;;24.60;99.90;;;;;;8419991;28;20520;-69
2022/10/17 14:25:38;;;;;;;9.48;8.43;;;24.50;99.90;;;;;;8395914;28;20365;-67
2022/10/17 14:29:53;;;;;;;9.25;8.32;;;24.40;99.90;;;;;;8418248;28;20180;-68
2022/10/17 14:33:54;;;;;;;8.88;7.97;;;24.30;99.90;;;;;;8416756;28;20185;-67
2022/10/17 14:38:04;;;;;;;8.68;7.78;;;24.00;99.90;;;;;;8395923;28;20204;-67
2022/10/17 14:42:05;;;;;;;8.38;7.57;;;23.80;99.90;;;;;;8417546;28;20400;-68
2022/10/17 14:46:12;;;;;;;9.07;8.13;;;23.60;99.90;;;;;;8392359;28;20478;-67
2022/10/17 14:50:13;;;;;;;8.52;7.72;;;23.30;99.90;;;;;;8416789;28;20192;-68
2022/10/17 14:54:24;;;;;;;8.80;7.75;;;23.10;99.90;;;;;;8413550;28;20292;-68
2022/10/17 14:58:27;;;;;;;9.07;7.20;;;22.80;1.00;;;;;;8413031;28;20217;-68
2022/10/17 15:02:29;;;;;;;8.97;8.03;;;22.50;1.00;;;;;;8416114;28;20591;-68
2022/10/17 15:06:32;;;;;;;9.27;8.37;;;22.30;99.90;;;;;;8413768;28;20195;-69
2022/10/17 15:10:36;;;;;;;8.73;7.73;;;22.10;99.90;;;;;;8394734;28;20184;-68
2022/10/17 15:14:36;;;;;;;9.43;8.53;;;21.90;99.90;;;;;;8408877;28;20188;-69
2022/10/17 15:18:37;;;;;;;9.37;8.20;;;21.80;99.90;;;;;;8394389;28;20223;-68
2022/10/17 15:22:38;;;;;;;10.10;8.13;;;21.60;1.00;;;;;;8414258;28;20229;-69
2022/10/17 15:26:39;;;;;;;9.67;8.67;;;21.40;28.80;;;;;;8396166;28;20211;-69
2022/10/17 15:30:39;;;;;;;10.47;9.37;;;21.10;99.90;;;;;;8385372;28;20192;-69
2022/10/17 15:34:40;;;;;;;9.53;8.50;;;20.80;1.00;;;;;;8393215;28;20207;-69
2022/10/17 15:38:41;;;;;;;8.80;7.90;;;20.50;22.50;;;;;;8395028;28;20208;-69
2022/10/17 15:42:42;;;;;;;8.77;7.77;;;20.20;99.90;;;;;;8413213;28;20198;-68
2022/10/17 15:46:43;;;;;;;8.77;7.67;;;19.90;1.00;;;;;;8414647;28;20180;-69
2022/10/17 15:50:44;;;;;;;8.87;7.97;;;19.60;81.00;;;;;;8411781;28;20192;-69
2022/10/17 15:54:45;;;;;;;10.50;9.27;;;19.40;99.90;;;;;;8411145;28;20184;-69
2022/10/17 15:58:46;;;;;;;11.00;9.77;;;19.00;99.90;;;;;;8409693;28;20271;-68
2022/10/17 16:02:48;;;;;;;11.00;9.60;;;18.80;99.90;;;;;;8394132;28;20204;-69
2022/10/17 16:06:48;;;;;;;13.03;10.53;;;18.50;99.90;;;;;;8409697;28;20234;-69
2022/10/17 16:10:50;;;;;;;15.87;11.20;;;18.30;87.10;;;;;;8413711;28;20188;-68
2022/10/17 16:14:51;;;;;;;13.83;9.87;;;18.10;99.90;;;;;;8413490;28;20239;-68
2022/10/17 16:18:51;;;;;;;16.37;10.27;;;18.00;99.90;;;;;;8393288;28;20235;-69
2022/10/17 16:22:58;;;;;;;12.80;9.37;;;17.80;1.00;;;;;;8412865;28;20184;-69
2022/10/17 16:26:59;;;;;;;12.77;9.67;;;17.60;1.00;;;;;;8410625;28;20184;-69
2022/10/17 16:31:00;;;;;;;11.53;9.30;;;17.30;99.90;;;;;;8395653;28;20188;-68
2022/10/17 16:35:00;;;;;;;11.07;8.97;;;17.10;1.00;;;;;;8389103;28;20184;-68
2022/10/17 16:39:01;;;;;;;9.50;8.47;;;16.90;1.00;;;;;;8393914;28;20215;-69
2022/10/17 16:43:02;;;;;;;11.07;9.10;;;16.60;99.90;;;;;;8394735;28;20313;-69
2022/10/17 16:47:03;;;;;;;10.93;8.73;;;16.50;1.00;;;;;;8411686;28;20191;-69
2022/10/17 16:51:04;;;;;;;13.03;9.73;;;16.30;1.00;;;;;;8412288;28;20188;-70
2022/10/17 16:55:05;;;;;;;13.37;10.47;;;16.20;1.00;;;;;;8410927;28;20303;-71
2022/10/17 16:59:06;;;;;;;13.13;10.07;;;16.00;99.90;;;;;;8394603;28;20246;-69
2022/10/17 17:03:07;;;;;;;11.90;9.80;;;15.90;1.00;;;;;;8391267;28;20207;-70
2022/10/17 17:07:07;;;;;;;12.20;9.67;;;15.70;1.00;;;;;;8412874;28;20193;-69
2022/10/17 17:11:10;;;;;;;10.80;9.67;;;15.60;1.00;;;;;;8412288;28;20192;-69
2022/10/17 17:15:11;;;;;;;15.83;11.73;;;15.50;1.00;;;;;;8411874;28;20184;-67
2022/10/17 17:19:15;;;;;;;13.13;11.40;;;15.30;99.90;;;;;;8412400;28;20208;-69
2022/10/17 17:23:16;;;;;;;15.33;11.23;;;15.00;56.20;;;;;;8407285;28;20192;-69
2022/10/17 17:27:17;;;;;;;12.17;9.87;;;14.80;1.00;;;;;;8392209;28;20195;-69
2022/10/17 17:31:21;;;;;;;15.93;11.53;;;14.70;99.90;;;;;;8393202;28;20192;-69
2022/10/17 17:35:22;;;;;;;11.53;10.07;;;14.60;99.90;;;;;;8411929;28;20484;-69
2022/10/17 17:39:23;;;;;;;14.80;10.40;;;14.50;99.90;;;;;;8410331;28;20597;-69
2022/10/17 17:43:24;;;;;;;11.60;10.00;;;14.40;99.90;;;;;;8392322;28;20203;-69
2022/10/17 17:47:27;;;;;;;13.70;10.40;;;14.40;99.90;;;;;;8411722;28;20276;-68
2022/10/17 17:51:28;;;;;;;13.03;10.70;;;14.40;99.90;;;;;;8392661;28;20192;-69
2022/10/17 17:55:29;;;;;;;14.00;11.10;;;14.30;99.90;;;;;;8392906;28;20189;-69
2022/10/17 17:59:30;;;;;;;14.00;11.50;;;14.20;99.90;;;;;;8409789;28;20607;-69
2022/10/17 18:03:31;;;;;;;13.33;10.47;;;14.10;99.90;;;;;;8400109;28;20203;-69
2022/10/17 18:07:36;;;;;;;11.77;9.60;;;14.10;99.90;;;;;;8416460;28;20230;-68
2022/10/17 18:11:37;;;;;;;14.83;9.80;;;13.90;99.90;;;;;;8416516;28;20249;-70
2022/10/17 18:15:40;;;;;;;13.20;10.33;;;13.90;99.90;;;;;;8396815;28;20189;-70
2022/10/17 18:19:41;;;;;;;14.23;9.93;;;13.80;99.90;;;;;;8392766;28;20311;-70
2022/10/17 18:23:44;;;;;;;14.63;12.10;;;13.60;99.90;;;;;;8399984;28;20185;-69
2022/10/17 18:27:46;;;;;;;13.37;11.33;;;13.50;99.90;;;;;;8413089;28;20180;-68
2022/10/17 18:31:48;;;;;;;23.13;15.13;;;13.40;99.90;;;;;;8399624;28;20285;-69
2022/10/17 18:35:50;;;;;;;25.97;17.03;;;13.40;99.90;;;;;;8399634;28;20480;-70
2022/10/17 18:39:54;;;;;;;18.77;13.67;;;13.30;99.90;;;;;;8415450;28;20339;-70
2022/10/17 18:43:55;;;;;;;17.80;12.37;;;13.10;99.90;;;;;;8396812;28;20187;-71
2022/10/17 18:47:56;;;;;;;21.43;15.77;;;13.00;99.90;;;;;;8414831;28;20196;-71
2022/10/17 18:51:58;;;;;;;19.87;15.47;;;12.90;99.90;;;;;;8414885;28;20199;-71
2022/10/17 18:56:02;;;;;;;26.70;19.20;;;12.90;99.90;;;;;;8413059;28;20639;-71
2022/10/17 19:00:04;;;;;;;24.23;17.27;;;12.80;99.90;;;;;;8395806;28;20200;-70
2022/10/17 19:04:05;;;;;;;17.20;14.10;;;12.70;99.90;;;;;;8415796;28;20192;-70
2022/10/17 19:08:06;;;;;;;16.20;13.60;;;12.60;99.90;;;;;;8387357;28;20222;-71
2022/10/17 19:12:12;;;;;;;16.27;11.97;;;12.50;99.90;;;;;;8397128;28;20185;-71
2022/10/17 19:16:19;;;;;;;15.00;12.13;;;12.40;99.90;;;;;;8396256;28;20233;-70
2022/10/17 19:20:20;;;;;;;13.10;11.47;;;12.20;99.90;;;;;;8395548;28;20248;-70
2022/10/17 19:24:24;;;;;;;13.00;10.13;;;12.20;99.90;;;;;;8394237;28;20212;-71
2022/10/17 19:28:25;;;;;;;16.40;10.97;;;12.10;99.90;;;;;;8380721;28;20564;-70
2022/10/17 19:32:26;;;;;;;14.37;10.87;;;12.00;99.90;;;;;;8393896;28;20196;-71
2022/10/17 19:36:30;;;;;;;12.57;10.37;;;12.00;99.90;;;;;;8394869;28;20538;-70
2022/10/17 19:40:30;;;;;;;15.10;11.47;;;11.90;99.90;;;;;;8393825;28;20267;-70
2022/10/17 19:44:31;;;;;;;16.40;13.03;;;11.80;99.90;;;;;;8412999;28;20188;-71
2022/10/17 19:48:37;;;;;;;17.20;12.83;;;11.80;99.90;;;;;;8411174;28;20180;-70
2022/10/17 19:52:38;;;;;;;16.43;13.23;;;11.80;99.90;;;;;;8394560;28;20279;-71
2022/10/17 19:56:42;;;;;;;19.13;14.07;;;11.70;99.90;;;;;;8393748;28;20204;-70
2022/10/17 20:00:51;;;;;;;17.50;13.70;;;11.70;99.90;;;;;;8409491;28;20303;-70
2022/10/17 20:04:51;;;;;;;19.53;14.27;;;11.70;99.90;;;;;;8411719;28;20211;-71
2022/10/17 20:08:52;;;;;;;23.10;14.50;;;11.70;99.90;;;;;;8413766;28;20179;-71
2022/10/17 20:12:54;;;;;;;18.93;14.03;;;11.60;99.90;;;;;;8380903;28;20407;-71
2022/10/17 20:16:55;;;;;;;19.47;13.27;;;11.60;99.90;;;;;;8395102;28;20215;-71
2022/10/17 20:21:05;;;;;;;21.47;15.97;;;11.50;99.90;;;;;;8397761;28;20248;-72
2022/10/17 20:25:06;;;;;;;23.00;15.93;;;11.50;99.90;;;;;;8408629;28;20241;-72
2022/10/17 20:29:18;;;;;;;32.70;22.53;;;11.60;99.90;;;;;;8410794;28;20246;-73
2022/10/17 20:33:19;;;;;;;41.50;28.77;;;11.70;99.90;;;;;;8394708;28;20189;-72
2022/10/17 20:37:20;;;;;;;40.37;26.23;;;11.70;99.90;;;;;;8394574;28;20218;-72
2022/10/17 20:41:22;;;;;;;26.87;19.63;;;11.60;99.90;;;;;;8411215;28;20320;-73
2022/10/17 20:45:23;;;;;;;21.53;15.63;;;11.50;99.90;;;;;;8408572;28;20184;-71
2022/10/17 20:49:24;;;;;;;18.30;14.10;;;11.30;99.90;;;;;;8389280;28;20253;-72
2022/10/17 20:53:25;;;;;;;20.57;14.70;;;11.20;99.90;;;;;;8411481;28;20198;-72
2022/10/17 20:57:25;;;;;;;26.03;16.77;;;11.00;99.90;;;;;;8389674;28;20226;-72
2022/10/17 21:01:28;;;;;;;29.27;20.27;;;11.00;99.90;;;;;;8391023;28;20200;-70